createdAt,value
2018-01-04T00:00:14.159Z,6.70
2018-01-04T00:02:41.124Z,6.60
2018-01-04T00:05:07.448Z,6.60
2018-01-04T00:07:34.234Z,6.60
2018-01-04T00:10:01.222Z,6.50
2018-01-04T00:12:27.785Z,6.50
2018-01-04T00:14:54.019Z,6.50
2018-01-04T00:17:21.019Z,6.60
2018-01-04T00:19:47.324Z,6.50
2018-01-04T00:22:14.092Z,6.50
2018-01-04T00:24:40.655Z,6.50
2018-01-04T00:27:07.457Z,6.50
2018-01-04T00:29:35.331Z,6.50
2018-01-04T00:32:02.160Z,6.50
2018-01-04T00:34:28.371Z,6.50
2018-01-04T00:36:55.362Z,6.60
2018-01-04T00:39:22.527Z,6.50
2018-01-04T00:41:48.758Z,6.50
2018-01-04T00:44:15.056Z,6.50
2018-01-04T00:46:42.148Z,6.60
2018-01-04T00:49:09.166Z,6.50
2018-01-04T00:51:35.480Z,6.50
2018-01-04T00:54:02.357Z,6.60
2018-01-04T00:56:28.810Z,6.60
2018-01-04T00:58:55.953Z,6.50
2018-01-04T01:01:24.284Z,6.50
2018-01-04T01:03:50.515Z,6.40
2018-01-04T01:06:18.313Z,6.40
2018-01-04T01:08:45.910Z,6.30
2018-01-04T01:11:12.202Z,6.30
2018-01-04T01:13:38.449Z,6.30
2018-01-04T01:16:05.395Z,6.30
2018-01-04T01:18:32.668Z,6.30
2018-01-04T01:21:00.305Z,6.30
2018-01-04T01:23:27.812Z,6.30
2018-01-04T01:25:54.077Z,6.30
2018-01-04T01:28:20.889Z,6.40
2018-01-04T01:30:47.107Z,6.30
2018-01-04T01:33:14.355Z,6.30
2018-01-04T01:35:40.628Z,6.20
2018-01-04T01:38:08.115Z,6.30
2018-01-04T01:40:35.523Z,6.30
2018-01-04T01:43:02.546Z,6.30
2018-01-04T01:45:28.761Z,6.30
2018-01-04T01:47:55.188Z,6.30
2018-01-04T01:50:22.227Z,6.30
2018-01-04T01:55:20.858Z,6.30
2018-01-04T01:57:47.630Z,6.30
2018-01-04T02:00:14.099Z,6.30
2018-01-04T02:15:40.786Z,6.30
2018-01-04T02:18:20.771Z,5.90
2018-01-04T02:21:00.923Z,5.90
2018-01-04T02:23:40.068Z,6.00
2018-01-04T02:26:06.289Z,6.00
2018-01-04T02:28:45.725Z,6.00
2018-01-04T02:31:24.202Z,6.00
2018-01-04T02:34:02.555Z,6.10
2018-01-04T02:36:41.699Z,6.10
2018-01-04T02:39:20.824Z,6.10
2018-01-04T02:41:59.341Z,6.00
2018-01-04T02:44:38.246Z,6.00
2018-01-04T02:47:05.208Z,6.00
2018-01-04T02:49:31.675Z,6.00
2018-01-04T02:51:59.329Z,6.00
2018-01-04T02:54:25.666Z,6.00
2018-01-04T02:56:52.223Z,6.10
2018-01-04T02:59:19.909Z,6.10
2018-01-04T03:01:47.492Z,6.10
2018-01-04T03:04:14.537Z,6.10
2018-01-04T03:06:41.574Z,6.10
2018-01-04T03:09:08.052Z,6.10
2018-01-04T03:11:34.837Z,6.10
2018-01-04T03:14:02.552Z,6.00
2018-01-04T03:16:29.525Z,6.00
2018-01-04T03:18:55.713Z,6.00
2018-01-04T03:21:21.944Z,6.00
2018-01-04T03:23:49.841Z,6.10
2018-01-04T03:26:22.231Z,6.00
2018-01-04T03:28:55.488Z,6.00
2018-01-04T03:31:27.713Z,6.00
2018-01-04T03:34:00.639Z,6.10
2018-01-04T03:36:33.030Z,6.10
2018-01-04T03:39:06.509Z,5.90
2018-01-04T03:41:39.571Z,5.90
2018-01-04T03:44:11.874Z,5.90
2018-01-04T03:46:44.483Z,5.90
2018-01-04T03:49:18.137Z,5.80
2018-01-04T03:51:50.768Z,5.80
2018-01-04T03:54:23.951Z,5.80
2018-01-04T03:56:57.023Z,5.90
2018-01-04T03:59:29.904Z,5.90
2018-01-04T04:02:02.646Z,5.90
2018-01-04T04:04:35.054Z,5.90
2018-01-04T04:07:07.762Z,5.90
2018-01-04T04:09:35.063Z,5.80
2018-01-04T04:12:02.554Z,5.80
2018-01-04T04:14:29.307Z,5.80
2018-01-04T04:16:56.619Z,5.90
2018-01-04T04:19:23.407Z,5.90
2018-01-04T04:21:50.646Z,5.90
2018-01-04T04:24:18.173Z,5.90
2018-01-04T04:26:45.006Z,5.80
2018-01-04T04:29:11.907Z,5.90
2018-01-04T04:31:38.852Z,6.00
2018-01-04T04:34:05.832Z,5.90
2018-01-04T04:36:32.072Z,5.90
2018-01-04T04:38:58.302Z,5.90
2018-01-04T04:41:24.993Z,5.80
2018-01-04T04:43:52.485Z,5.80
2018-01-04T04:46:18.785Z,5.80
2018-01-04T04:48:45.568Z,5.80
2018-01-04T04:51:12.335Z,5.70
2018-01-04T04:53:38.614Z,5.70
2018-01-04T04:56:04.940Z,5.70
2018-01-04T04:58:31.157Z,5.70
2018-01-04T05:00:57.674Z,5.80
2018-01-04T05:03:25.354Z,5.80
2018-01-04T05:05:53.061Z,5.80
2018-01-04T05:08:19.590Z,5.70
2018-01-04T05:10:46.819Z,5.70
2018-01-04T05:13:13.038Z,5.70
2018-01-04T05:15:39.266Z,5.70
2018-01-04T05:18:06.122Z,5.70
2018-01-04T05:20:32.477Z,5.70
2018-01-04T05:22:58.711Z,5.80
2018-01-04T05:25:24.942Z,5.80
2018-01-04T05:27:52.106Z,5.80
2018-01-04T05:30:19.584Z,5.80
2018-01-04T05:32:47.115Z,5.80
2018-01-04T05:35:13.308Z,5.80
2018-01-04T05:37:39.797Z,5.80
2018-01-04T05:40:09.078Z,5.70
2018-01-04T05:42:35.919Z,5.70
2018-01-04T05:45:03.079Z,5.80
2018-01-04T05:47:30.181Z,5.80
2018-01-04T05:49:57.659Z,5.80
2018-01-04T05:52:25.837Z,5.70
2018-01-04T05:54:52.991Z,5.70
2018-01-04T05:57:19.845Z,5.80
2018-01-04T05:59:46.828Z,5.80
2018-01-04T06:02:13.874Z,5.70
2018-01-04T06:04:41.086Z,5.70
2018-01-04T06:07:07.698Z,5.80
2018-01-04T06:09:34.756Z,5.80
2018-01-04T06:12:00.991Z,5.80
2018-01-04T06:14:27.329Z,5.70
2018-01-04T06:16:54.231Z,5.70
2018-01-04T06:19:20.663Z,5.70
2018-01-04T06:21:47.064Z,5.50
2018-01-04T06:24:13.752Z,5.60
2018-01-04T06:26:40.750Z,5.60
2018-01-04T06:29:07.193Z,5.60
2018-01-04T06:31:35.034Z,5.60
2018-01-04T06:34:02.055Z,5.50
2018-01-04T06:36:28.274Z,5.40
2018-01-04T06:38:54.504Z,5.50
2018-01-04T06:41:20.719Z,5.50
2018-01-04T06:43:47.043Z,5.60
2018-01-04T06:46:13.720Z,5.60
2018-01-04T06:48:41.604Z,5.60
2018-01-04T06:51:08.814Z,5.60
2018-01-04T06:53:36.029Z,5.60
2018-01-04T06:56:02.288Z,5.50
2018-01-04T06:58:28.551Z,5.60
2018-01-04T07:00:55.530Z,5.60
2018-01-04T07:03:22.324Z,5.60
2018-01-04T07:05:48.730Z,5.60
2018-01-04T07:08:15.262Z,5.60
2018-01-04T07:23:42.213Z,5.60
2018-01-04T07:26:08.885Z,5.40
2018-01-04T07:28:35.936Z,5.40
2018-01-04T07:31:02.902Z,5.40
2018-01-04T07:33:29.742Z,5.40
2018-01-04T07:35:56.838Z,5.50
2018-01-04T07:38:23.326Z,5.50
2018-01-04T07:40:49.744Z,5.60
2018-01-04T07:43:15.963Z,5.60
2018-01-04T07:45:42.939Z,5.70
2018-01-04T07:48:09.313Z,5.70
2018-01-04T07:50:35.574Z,5.80
2018-01-04T07:53:01.970Z,5.80
2018-01-04T07:55:28.836Z,5.90
2018-01-04T07:57:56.040Z,6.00
2018-01-04T08:00:23.743Z,5.90
2018-01-04T08:02:51.423Z,5.90
2018-01-04T08:05:18.376Z,5.80
2018-01-04T08:07:44.604Z,5.80
2018-01-04T08:10:11.149Z,5.80
2018-01-04T08:12:38.678Z,5.80
2018-01-04T08:15:05.771Z,5.90
2018-01-04T08:17:32.017Z,5.80
2018-01-04T08:19:58.494Z,5.90
2018-01-04T08:22:25.459Z,5.90
2018-01-04T08:24:52.366Z,5.80
2018-01-04T08:27:19.907Z,5.90
2018-01-04T08:29:46.675Z,5.90
2018-01-04T08:32:14.641Z,6.00
2018-01-04T08:34:42.540Z,6.20
2018-01-04T08:37:08.866Z,6.20
2018-01-04T08:39:35.129Z,6.20
2018-01-04T08:42:01.401Z,6.20
2018-01-04T08:44:29.076Z,6.20
2018-01-04T08:46:56.041Z,6.20
2018-01-04T08:49:22.286Z,6.20
2018-01-04T08:51:48.575Z,6.20
2018-01-04T08:54:14.902Z,6.20
2018-01-04T08:56:41.329Z,6.20
2018-01-04T08:59:07.623Z,6.20
2018-01-04T09:01:34.401Z,6.20
2018-01-04T09:04:01.400Z,6.30
2018-01-04T09:06:27.748Z,6.30
2018-01-04T09:08:54.087Z,6.40
2018-01-04T09:11:20.340Z,6.50
2018-01-04T09:13:46.878Z,6.40
2018-01-04T09:16:14.340Z,6.30
2018-01-04T09:18:40.593Z,6.20
2018-01-04T09:21:08.377Z,6.30
2018-01-04T09:23:36.588Z,6.30
2018-01-04T09:26:02.939Z,6.40
2018-01-04T09:28:29.162Z,6.40
2018-01-04T09:30:55.926Z,6.40
2018-01-04T09:33:23.119Z,6.50
2018-01-04T09:35:50.718Z,6.50
2018-01-04T09:38:19.922Z,6.50
2018-01-04T09:40:46.251Z,6.50
2018-01-04T09:43:12.540Z,6.60
2018-01-04T09:45:39.655Z,6.60
2018-01-04T09:48:05.931Z,6.50
2018-01-04T09:50:33.512Z,6.50
2018-01-04T09:53:00.640Z,6.50
2018-01-04T09:55:27.665Z,6.50
2018-01-04T09:57:53.874Z,6.50
2018-01-04T10:00:21.144Z,6.60
2018-01-04T10:02:47.664Z,6.60
2018-01-04T10:05:15.310Z,6.60
2018-01-04T10:07:42.598Z,6.60
2018-01-04T10:10:09.850Z,6.70
2018-01-04T10:12:36.476Z,6.70
2018-01-04T10:15:02.911Z,6.80
2018-01-04T10:17:30.049Z,6.80
2018-01-04T10:19:56.722Z,6.80
2018-01-04T10:22:24.142Z,6.90
2018-01-04T10:24:51.793Z,6.80
2018-01-04T10:27:18.843Z,6.90
2018-01-04T10:29:45.134Z,6.90
2018-01-04T10:32:11.531Z,6.90
2018-01-04T10:34:38.227Z,6.90
2018-01-04T10:37:05.356Z,7.00
2018-01-04T10:39:32.159Z,7.00
2018-01-04T10:41:58.963Z,7.00
2018-01-04T10:44:26.640Z,6.90
2018-01-04T10:46:53.732Z,7.00
2018-01-04T10:49:20.030Z,7.00
2018-01-04T10:51:46.895Z,7.00
2018-01-04T10:54:14.178Z,7.00
2018-01-04T10:56:41.258Z,7.00
2018-01-04T10:59:07.515Z,7.00
2018-01-04T11:01:33.782Z,7.00
2018-01-04T11:04:00.008Z,7.00
2018-01-04T11:06:26.710Z,7.00
2018-01-04T11:08:53.789Z,7.10
2018-01-04T11:11:20.211Z,7.10
2018-01-04T11:23:31.844Z,7.20
2018-01-04T11:25:58.902Z,7.00
2018-01-04T11:28:26.380Z,7.10
2018-01-04T11:30:54.172Z,7.10
2018-01-04T11:33:20.641Z,7.10
2018-01-04T11:35:46.903Z,7.30
2018-01-04T11:38:13.240Z,7.20
2018-01-04T11:40:39.493Z,7.30
2018-01-04T11:43:05.802Z,7.30
2018-01-04T11:45:32.245Z,7.40
2018-01-04T11:47:59.936Z,7.60
2018-01-04T11:50:26.219Z,7.50
2018-01-04T11:52:52.967Z,7.60
2018-01-04T11:55:19.714Z,7.60
2018-01-04T11:57:46.780Z,7.60
2018-01-04T12:00:13.579Z,7.60
2018-01-04T12:02:40.133Z,7.60
2018-01-04T12:05:07.235Z,7.50
2018-01-04T12:07:34.318Z,7.50
2018-01-04T12:10:00.643Z,7.50
2018-01-04T12:12:26.882Z,7.60
2018-01-04T12:14:53.111Z,7.60
2018-01-04T12:17:19.522Z,7.70
2018-01-04T12:19:45.827Z,7.70
2018-01-04T12:22:12.093Z,7.60
2018-01-04T12:24:38.503Z,7.60
2018-01-04T12:27:06.299Z,7.70
2018-01-04T12:29:33.334Z,7.70
2018-01-04T12:41:44.989Z,7.70
2018-01-04T12:44:12.055Z,7.40
2018-01-04T12:46:38.280Z,7.40
2018-01-04T12:49:05.001Z,7.40
2018-01-04T12:51:31.872Z,7.50
2018-01-04T12:53:58.829Z,7.50
2018-01-04T12:56:26.458Z,7.50
2018-01-04T12:58:53.040Z,7.50
2018-01-04T13:01:20.931Z,7.50
2018-01-04T13:03:48.467Z,7.40
2018-01-04T13:06:16.138Z,7.50
2018-01-04T13:08:43.215Z,7.50
2018-01-04T13:11:09.756Z,7.50
2018-01-04T13:13:37.001Z,7.40
2018-01-04T13:16:03.409Z,7.40
2018-01-04T13:18:31.117Z,7.40
2018-01-04T13:20:57.604Z,7.40
2018-01-04T13:23:23.920Z,7.40
2018-01-04T13:25:50.909Z,7.40
2018-01-04T13:28:18.095Z,7.10
2018-01-04T13:30:46.825Z,7.10
2018-01-04T13:33:14.428Z,7.20
2018-01-04T13:35:41.836Z,7.20
2018-01-04T13:38:09.620Z,7.20
2018-01-04T13:40:37.190Z,7.30
2018-01-04T13:43:03.512Z,7.30
2018-01-04T13:45:30.153Z,7.40
2018-01-04T13:47:57.239Z,7.30
2018-01-04T13:50:23.592Z,7.30
2018-01-04T13:52:49.892Z,7.30
2018-01-04T13:55:16.165Z,7.30
2018-01-04T13:57:43.132Z,7.00
2018-01-04T14:00:10.530Z,7.00
2018-01-04T14:02:36.910Z,7.10
2018-01-04T14:05:04.209Z,7.10
2018-01-04T14:07:30.546Z,7.00
2018-01-04T14:10:00.641Z,6.80
2018-01-04T14:12:27.296Z,6.60
2018-01-04T14:14:54.308Z,6.60
2018-01-04T14:17:20.582Z,6.50
2018-01-04T14:19:46.848Z,6.50
2018-01-04T14:22:13.820Z,6.70
2018-01-04T14:24:40.086Z,6.70
2018-01-04T14:27:06.314Z,6.80
2018-01-04T14:29:32.624Z,6.80
2018-01-04T14:31:59.402Z,6.90
2018-01-04T14:34:26.791Z,6.90
2018-01-04T14:36:53.209Z,7.00
2018-01-04T14:39:20.312Z,7.30
2018-01-04T14:41:47.338Z,7.30
2018-01-04T14:44:14.957Z,7.10
2018-01-04T14:46:42.405Z,7.10
2018-01-04T14:49:09.392Z,7.10
2018-01-04T14:51:35.764Z,7.10
2018-01-04T14:54:02.175Z,7.10
2018-01-04T14:56:29.173Z,7.10
2018-01-04T14:58:56.615Z,7.10
2018-01-04T15:01:23.682Z,7.20
2018-01-04T15:03:50.672Z,7.20
2018-01-04T15:06:17.011Z,7.10
2018-01-04T15:08:44.021Z,7.10
2018-01-04T15:11:11.212Z,7.10
2018-01-04T15:13:37.672Z,7.10
2018-01-04T15:16:05.149Z,7.10
2018-01-04T15:18:31.387Z,7.10
2018-01-04T15:20:58.209Z,7.10
2018-01-04T15:23:25.477Z,7.10
2018-01-04T15:25:52.731Z,7.10
2018-01-04T15:28:19.469Z,7.00
2018-01-04T15:30:47.621Z,6.90
2018-01-04T15:33:20.975Z,6.90
2018-01-04T15:35:48.218Z,6.70
2018-01-04T15:38:15.039Z,6.80
2018-01-04T15:40:41.254Z,6.80
2018-01-04T15:43:07.467Z,6.90
2018-01-04T15:45:35.114Z,7.00
2018-01-04T15:48:02.775Z,6.90
2018-01-04T15:50:30.143Z,6.90
2018-01-04T15:52:57.262Z,6.90
2018-01-04T15:55:23.488Z,6.90
2018-01-04T15:57:50.325Z,6.70
2018-01-04T16:00:17.539Z,6.60
2018-01-04T16:02:43.758Z,6.70
2018-01-04T16:05:10.506Z,6.70
2018-01-04T16:07:36.979Z,6.70
2018-01-04T16:10:03.998Z,6.70
2018-01-04T16:12:30.244Z,6.70
2018-01-04T16:14:56.764Z,6.70
2018-01-04T16:17:23.773Z,6.70
2018-01-04T16:19:51.928Z,6.70
2018-01-04T16:22:19.471Z,6.50
2018-01-04T16:24:45.730Z,6.50
2018-01-04T16:27:13.196Z,6.50
2018-01-04T16:29:39.438Z,6.40
2018-01-04T16:32:05.669Z,6.60
2018-01-04T16:34:32.078Z,6.50
2018-01-04T16:36:59.464Z,6.60
2018-01-04T16:39:26.496Z,6.30
2018-01-04T16:41:53.332Z,6.30
2018-01-04T16:44:19.563Z,6.20
2018-01-04T16:46:46.919Z,6.30
2018-01-04T16:49:14.019Z,6.20
2018-01-04T16:51:40.237Z,6.20
2018-01-04T16:54:07.667Z,6.20
2018-01-04T16:56:33.938Z,6.30
2018-01-04T16:59:00.295Z,6.40
2018-01-04T17:01:26.830Z,6.50
2018-01-04T17:03:55.010Z,6.40
2018-01-04T17:06:21.234Z,6.40
2018-01-04T17:08:48.411Z,6.40
2018-01-04T17:11:16.086Z,6.30
2018-01-04T17:13:43.551Z,6.30
2018-01-04T17:16:09.922Z,6.40
2018-01-04T17:18:36.909Z,6.40
2018-01-04T17:21:04.773Z,6.40
2018-01-04T17:23:31.276Z,6.40
2018-01-04T17:25:58.938Z,6.40
2018-01-04T17:28:25.904Z,6.40
2018-01-04T17:30:52.771Z,6.40
2018-01-04T17:33:19.006Z,6.30
2018-01-04T17:35:45.506Z,6.30
2018-01-04T17:38:11.765Z,6.20
2018-01-04T17:40:38.075Z,6.10
2018-01-04T17:43:04.744Z,6.00
2018-01-04T17:45:32.776Z,6.00
2018-01-04T17:48:00.519Z,6.00
2018-01-04T17:50:28.009Z,5.90
2018-01-04T17:52:55.344Z,5.90
2018-01-04T17:55:22.547Z,5.80
2018-01-04T17:57:49.546Z,5.80
2018-01-04T18:00:15.795Z,5.90
2018-01-04T18:02:42.096Z,5.70
2018-01-04T18:05:08.327Z,5.80
2018-01-04T18:07:35.012Z,6.00
2018-01-04T18:10:02.282Z,6.00
2018-01-04T18:12:30.275Z,6.00
2018-01-04T18:14:58.678Z,6.00
2018-01-04T18:17:24.917Z,6.00
2018-01-04T18:19:51.371Z,5.90
2018-01-04T18:22:18.371Z,5.80
2018-01-04T18:24:44.839Z,5.70
2018-01-04T18:27:11.590Z,5.80
2018-01-04T18:29:37.833Z,5.80
2018-01-04T18:32:04.036Z,5.90
2018-01-04T18:34:30.864Z,5.90
2018-01-04T18:36:57.423Z,5.90
2018-01-04T18:39:24.520Z,5.70
2018-01-04T18:41:50.850Z,5.70
2018-01-04T18:44:17.587Z,5.80
2018-01-04T18:46:43.838Z,5.70
2018-01-04T18:49:10.068Z,5.80
2018-01-04T18:51:36.568Z,5.80
2018-01-04T18:54:03.537Z,5.90
2018-01-04T18:56:30.393Z,5.90
2018-01-04T18:58:56.914Z,5.90
2018-01-04T19:01:23.700Z,5.80
2018-01-04T19:03:51.446Z,5.90
2018-01-04T19:06:18.879Z,6.00
2018-01-04T19:08:46.088Z,6.10
2018-01-04T19:11:13.600Z,6.10
2018-01-04T19:13:39.968Z,6.00
2018-01-04T19:16:07.080Z,6.10
2018-01-04T19:18:35.260Z,6.10
2018-01-04T19:21:01.905Z,6.20
2018-01-04T19:23:29.932Z,6.20
2018-01-04T19:25:56.317Z,6.20
2018-01-04T19:28:22.870Z,6.30
2018-01-04T19:30:49.999Z,6.30
2018-01-04T19:33:17.648Z,6.30
2018-01-04T19:35:44.001Z,6.30
2018-01-04T19:38:11.321Z,6.40
2018-01-04T19:40:39.782Z,6.40
2018-01-04T19:43:07.603Z,6.30
2018-01-04T19:45:34.854Z,6.30
2018-01-04T19:48:02.802Z,6.30
2018-01-04T19:50:29.528Z,6.30
2018-01-04T19:52:57.211Z,6.40
2018-01-04T19:55:24.830Z,6.40
2018-01-04T19:57:51.846Z,6.30
2018-01-04T20:00:19.148Z,6.60
2018-01-04T20:02:45.911Z,6.60
2018-01-04T20:05:12.282Z,6.60
2018-01-04T20:07:38.742Z,6.60
2018-01-04T20:10:05.676Z,6.50
2018-01-04T20:12:32.849Z,6.60
2018-01-04T20:14:59.251Z,6.60
2018-01-04T20:17:26.682Z,6.60
2018-01-04T20:19:54.441Z,6.90
2018-01-04T20:22:21.838Z,6.90
2018-01-04T20:24:49.094Z,6.80
2018-01-04T20:27:15.640Z,6.70
2018-01-04T20:29:42.170Z,6.70
2018-01-04T20:32:09.295Z,6.60
2018-01-04T20:34:37.020Z,6.60
2018-01-04T20:37:04.177Z,6.60
2018-01-04T20:39:31.541Z,6.60
2018-01-04T20:41:58.632Z,6.60
2018-01-04T20:44:25.167Z,6.60
2018-01-04T20:46:51.675Z,6.60
2018-01-04T20:49:18.201Z,6.60
2018-01-04T20:51:45.213Z,6.70
2018-01-04T20:54:12.498Z,6.80
2018-01-04T20:56:39.559Z,6.80
2018-01-04T20:59:06.599Z,6.70
2018-01-04T21:01:33.322Z,6.70
2018-01-04T21:04:00.586Z,6.70
2018-01-04T21:06:27.607Z,6.70
2018-01-04T21:08:54.106Z,6.70
2018-01-04T21:11:22.031Z,6.70
2018-01-04T21:13:48.507Z,6.80
2018-01-04T21:16:15.022Z,6.80
2018-01-04T21:18:41.482Z,6.90
2018-01-04T21:21:08.172Z,6.90
2018-01-04T21:23:35.948Z,6.90
2018-01-04T21:26:02.380Z,6.90
2018-01-04T21:28:29.554Z,6.90
2018-01-04T21:30:57.128Z,6.80
2018-01-04T21:33:24.285Z,6.70
2018-01-04T21:35:51.325Z,6.70
2018-01-04T21:38:17.838Z,6.80
2018-01-04T21:40:45.567Z,6.80
2018-01-04T21:43:13.104Z,6.80
2018-01-04T21:45:40.101Z,6.80
2018-01-04T21:48:07.114Z,6.90
2018-01-04T21:50:34.594Z,6.80
2018-01-04T21:53:02.403Z,6.90
2018-01-04T21:55:30.416Z,6.80
2018-01-04T21:57:58.132Z,7.00
2018-01-04T22:00:24.618Z,7.00
2018-01-04T22:02:51.256Z,7.00
2018-01-04T22:05:18.718Z,7.00
2018-01-04T22:07:44.981Z,6.90
2018-01-04T22:10:11.373Z,6.80
2018-01-04T22:12:37.951Z,6.80
2018-01-04T22:15:06.476Z,6.90
2018-01-04T22:17:34.477Z,6.90
2018-01-04T22:20:01.382Z,6.80
2018-01-04T22:22:29.351Z,6.90
2018-01-04T22:24:56.752Z,7.00
2018-01-04T22:27:23.780Z,7.10
2018-01-04T22:29:50.901Z,7.10
2018-01-04T22:32:18.188Z,7.00
2018-01-04T22:34:44.732Z,6.90
2018-01-04T22:37:12.334Z,6.90
2018-01-04T22:39:38.607Z,7.00
2018-01-04T22:42:05.058Z,6.90
2018-01-04T22:44:32.579Z,7.00
2018-01-04T22:46:59.311Z,7.00
2018-01-04T22:49:26.896Z,7.10
2018-01-04T22:51:53.258Z,7.10
2018-01-04T22:54:19.567Z,7.10
2018-01-04T22:56:46.225Z,7.20
2018-01-04T22:59:13.210Z,6.90
2018-01-04T23:01:40.893Z,7.00
2018-01-04T23:04:07.299Z,7.00
2018-01-04T23:06:33.653Z,7.00
2018-01-04T23:09:00.988Z,6.90
2018-01-04T23:11:27.993Z,6.80
2018-01-04T23:13:54.405Z,6.80
2018-01-04T23:16:21.152Z,6.90
2018-01-04T23:18:48.440Z,6.90
2018-01-04T23:21:17.010Z,7.00
2018-01-04T23:29:55.037Z,7.20
2018-01-04T23:41:01.417Z,7.50
2018-01-04T23:43:28.393Z,7.40
2018-01-04T23:45:54.644Z,7.40
2018-01-04T23:48:21.055Z,7.50
2018-01-04T23:50:47.983Z,7.40
2018-01-04T23:53:16.016Z,7.30
2018-01-04T23:55:45.304Z,7.30
2018-01-04T23:58:12.516Z,7.30
